x

Mid Superior 60nm North Northeast Hancock, Mi (45001) Wave Buoy

12:50pm - Thu 27th Jul 2017 All times are CDT. -5 hours from GMT.

  • Sig Wave height 0.3ft
  • Average Period 3s
  • Wind
    4mph, 4mph gusts
  • Sea Temp 47°f
  • Air Temp 52°f
  • Sea Pressure 1019.9mb
  • Mid Superior 60nm North Northeast Hancock, Mi
  • Mid Superior 60nm North Northeast Hancock, Mi

More Historic Weather Station data

Upgrade to MSW Pro to gain access to the past 30 days of data for over 8000 Wavebouys and Weather Stations around the globe.

Join Pro

Comparision Forecast

View Surf forecast
   
Thu 07/27 12:50pm 0.3ft  -  3s 4 4 mph 1019.9mb 47f 52f
11:50am 0.3ft  -  3s 7 7 mph 1020.3mb 46f 50f
10:50am 0.7ft  -  3s 7 7 mph 1019.8mb 46f 49f
9:50am 0.7ft  -  3s 4 4 mph 1019.2mb 45f 47f
8:50am 0.7ft  -  3s 2 2 mph 1018.7mb 44f 53f
7:50am 0.7ft  -  3s 7 7 mph 1018.5mb 44f 51f
6:50am 0.7ft  -  3s 7 7 mph 1018.1mb 44f 50f
5:50am 0.7ft  -  3s 9 9 mph 1017.7mb 44f 51f
4:50am 0.7ft  -  3s 11 11 mph 1017.1mb 44f 52f
3:50am 0.7ft  -  3s 11 11 mph 1016.5mb 44f 53f
2:50am 1ft 4s 3s 9 11 mph 1016mb 44f 52f
1:50am 1ft 4s 3s 9 9 mph 1015.6mb 44f 54f
12:50am 1ft 4s 3s 7 9 mph 1015.2mb 44f 53f
Wed 07/26 11:50pm 1.3ft 4s 3s 9 9 mph 1014.7mb 44f 52f
10:50pm 1.3ft 4s 3s 7 9 mph 1014.2mb 43f 51f
9:50pm 1.3ft 4s 3s 7 9 mph 1013.9mb 43f 50f
8:50pm 1.6ft 4s 4s 11 11 mph 1013.4mb 43f 50f
7:50pm 2ft 4s 4s 11 11 mph 1012.9mb 43f 52f
6:50pm 2ft 4s 4s 11 13 mph 1012.9mb 43f 49f
5:50pm 2ft 4s 3s 13 16 mph 1012.1mb 44f 50f
4:50pm 1.6ft 4s 3s 16 18 mph 1011.9mb 44f 51f
3:50pm 1.6ft 4s 3s 18 18 mph 1011.8mb 44f 53f
2:50pm 1.6ft 4s 3s 13 16 mph 1012.1mb 44f 51f
1:50pm 1.3ft 4s 4s 13 16 mph 1012.3mb 44f 51f
12:50pm 1.6ft 4s 4s 11 11 mph 1012.3mb 44f 50f
11:50am 1.6ft 4s 4s 11 11 mph 1012.2mb 43f 49f
10:50am 1.6ft 4s 4s 11 13 mph 1012.4mb 43f 49f
9:50am 1.6ft 4s 4s 13 13 mph 1012.1mb 43f 49f
8:50am 1.6ft 4s 4s 13 13 mph 1012.2mb 43f 49f
7:50am 1.6ft 4s 3s 11 13 mph 1011.9mb 43f 48f
6:50am 1.6ft 4s 4s 13 16 mph 1011.3mb 43f 46f
5:50am 1.6ft 4s 4s 13 16 mph 1010.7mb 43f 48f
4:50am 1.6ft 4s 4s 9 11 mph 1009.7mb 43f 49f
3:50am 1.6ft 4s 4s 13 16 mph 1010.7mb 43f 49f
2:50am 1.3ft 4s 4s 11 11 mph 1011.1mb 43f 48f
1:50am 1.3ft 4s 4s 11 13 mph 1011.9mb 43f 50f
12:50am 1.3ft 4s 4s 11 11 mph 1011.9mb 43f 50f
Tue 07/25 11:50pm 1.6ft 4s 4s 13 13 mph 1012.3mb 43f 51f
10:50pm 2ft 4s 4s 13 18 mph 1013.6mb 44f 53f
9:50pm 1.6ft 4s 3s 13 13 mph 1013.8mb 44f 52f
8:50pm 1.6ft 4s 3s 16 18 mph 1012.5mb 44f 53f
7:50pm 1.3ft 3s 3s 13 16 mph 1013.4mb 44f 50f
6:50pm 1ft 2s 3s 16 18 mph 1014.7mb 44f 51f
5:50pm 0.7ft  -  3s 13 16 mph 1015.8mb 44f 50f
4:50pm 1ft 3s 3s 11 11 mph 1016.3mb 44f 50f
3:50pm 1.3ft 3s 3s 9 11 mph 1017.3mb 44f 51f
2:50pm 1ft 3s 3s 13 16 mph 1018mb 44f 52f
1:50pm 0.7ft  -  3s 11 13 mph 1018.9mb 44f 51f
12:50pm 0.7ft  -  3s 13 16 mph 1018.7mb 44f 51f
11:50am 0.7ft  -  3s 7 9 mph 1019.5mb 45f 49f
10:50am 0.7ft  -  3s 7 7 mph 1019.6mb 44f 50f
9:50am 0.7ft  -  3s 4 7 mph 1019.8mb 44f 48f
8:50am 0.7ft  -  3s 7 7 mph 1019.7mb 43f 49f
7:50am 0.3ft  -  3s 7 7 mph 1020mb 43f 48f
6:50am 0.3ft  -  3s 9 9 mph 1020.1mb 43f 48f
5:50am 0.3ft  -  3s 9 9 mph 1019.7mb 43f 48f
4:50am  -   -   -  9 9 mph 1019.2mb 43f 49f
3:50am 0.3ft  -  3s 11 11 mph 1018.7mb 43f 51f
2:50am 0.3ft  -  3s 9 11 mph 1018.4mb 43f 49f
1:50am 0.3ft  -  3s 9 9 mph 1018.8mb 43f 50f
12:50am 0.3ft  -  3s 7 7 mph 1019.1mb 43f 48f
Mon 07/24 11:50pm 0.7ft  -  3s 7 7 mph 1018.9mb 43f 49f
10:50pm 0.7ft  -  3s 7 7 mph 1019.1mb 43f 47f
9:50pm 0.7ft  -  3s 9 9 mph 1018.9mb 43f 46f
8:50pm 0.7ft  -  3s 9 9 mph 1018.3mb 43f 48f
7:50pm 1ft 3s 3s 7 9 mph 1018.2mb 43f 47f
6:50pm 1ft 3s 3s 11 11 mph 1017.9mb 43f 47f
5:50pm 1.3ft 4s 3s 11 11 mph 1018mb 43f 47f
4:50pm 1ft 3s 3s 11 13 mph 1018mb 43f 47f
3:50pm 1.3ft 3s 3s 11 11 mph 1018.1mb 43f 46f
2:50pm 1.3ft 3s 3s 11 13 mph 1018.5mb 43f 46f
1:50pm 1.3ft 3s 3s 11 13 mph 1018.5mb 43f 45f
12:50pm 1ft 3s 3s 11 13 mph 1018.6mb 43f 45f
11:50am 1ft 3s 3s 11 13 mph 1019mb 43f 45f
10:50am 0.7ft  -  3s 13 13 mph 1018.7mb 43f 46f
9:50am 0.7ft  -  3s 13 16 mph 1018.8mb 43f 46f
8:50am 0.7ft  -  4s 11 13 mph 1019mb 43f 46f
7:50am 0.7ft  -  4s 11 11 mph 1018.7mb 43f 46f
6:50am 0.7ft  -  4s 7 9 mph 1018.5mb 43f 47f
5:50am 0.7ft  -  4s 7 7 mph 1018mb 43f 47f
4:50am 0.7ft  -  4s 7 9 mph 1017.7mb 43f 47f
3:50am 1ft 5s 4s 7 9 mph 1017.4mb 43f 47f
2:50am 1ft 5s 4s 7 7 mph 1017.3mb 43f 47f
1:50am 1ft 5s 4s 7 7 mph 1017.3mb 43f 47f
12:50am 1ft 5s 4s 7 9 mph 1017.3mb 44f 46f
Sun 07/23 11:50pm 1ft 5s 4s 7 9 mph 1017.1mb 44f 47f
10:50pm 1.3ft 5s 4s 7 7 mph 1016.5mb 44f 48f
9:50pm 1.3ft 5s 4s 7 7 mph 1016.6mb 44f 47f
8:50pm 1.3ft 5s 4s 7 9 mph 1016.1mb 44f 48f
7:50pm 1.3ft 5s 4s 4 4 mph 1015.5mb 44f 50f